Time;durP1;ratioP1;P1;durP2;ratioP2;P2;SDS_P1;SDS_P2;PMS_P1;PMS_P2;Temp;Humidity;BMP_temperature;BMP_pressure;BME280_temperature;BME280_humidity;BME280_pressure;Samples;Min_cycle;Max_cycle;Signal;HPM_P1;HPM_P2
2024/01/06 00:01:36;;;;;;;6.53;5.97;;;5.70;99.90;;;;;;5037323;28;20563;-68
2024/01/06 00:04:02;;;;;;;4.60;4.20;;;5.70;99.90;;;;;;5033938;28;20638;-68
2024/01/06 00:06:27;;;;;;;7.80;5.47;;;5.70;99.90;;;;;;5033529;28;20655;-68
2024/01/06 00:08:54;;;;;;;5.70;2.60;;;5.80;99.90;;;;;;5039906;28;20292;-70
2024/01/06 00:11:20;;;;;;;4.00;3.63;;;5.70;99.90;;;;;;5050567;28;20178;-68
2024/01/06 00:13:46;;;;;;;3.33;3.03;;;5.70;99.90;;;;;;5050417;28;20981;-68
2024/01/06 00:16:12;;;;;;;4.30;3.03;;;5.80;99.90;;;;;;5053397;28;20427;-68
2024/01/06 00:18:38;;;;;;;4.30;3.80;;;5.80;99.90;;;;;;5053235;28;20197;-68
2024/01/06 00:21:04;;;;;;;4.67;3.60;;;5.70;99.90;;;;;;5053249;28;20216;-68
2024/01/06 00:23:29;;;;;;;5.70;3.70;;;5.80;99.90;;;;;;5093038;22;20898;-68
2024/01/06 00:25:56;;;;;;;3.40;2.67;;;5.80;99.90;;;;;;5085134;28;20255;-68
2024/01/06 00:28:21;;;;;;;4.60;3.57;;;5.80;99.90;;;;;;5093066;28;20165;-68
2024/01/06 00:30:46;;;;;;;3.53;2.50;;;5.80;99.90;;;;;;5093542;28;20425;-68
2024/01/06 00:33:12;;;;;;;4.40;2.83;;;5.80;99.90;;;;;;5093276;28;20212;-68
2024/01/06 00:35:38;;;;;;;4.70;2.40;;;5.80;99.90;;;;;;5093458;28;20641;-68
2024/01/06 00:38:04;;;;;;;4.20;2.50;;;5.80;99.90;;;;;;5093063;28;20172;-68
2024/01/06 00:40:29;;;;;;;2.80;2.00;;;5.90;99.90;;;;;;5092245;28;20182;-68
2024/01/06 00:42:55;;;;;;;3.33;2.10;;;5.80;99.90;;;;;;5093072;28;20192;-69
2024/01/06 00:45:20;;;;;;;2.67;2.00;;;5.80;99.90;;;;;;5093253;28;20246;-69
2024/01/06 00:47:46;;;;;;;4.50;1.80;;;5.80;99.90;;;;;;5091580;28;20183;-68
2024/01/06 00:50:12;;;;;;;4.13;2.43;;;5.80;99.90;;;;;;5093135;28;20176;-68
2024/01/06 00:52:37;;;;;;;3.97;2.00;;;5.80;99.90;;;;;;5093026;28;20196;-68
2024/01/06 00:55:03;;;;;;;2.70;2.50;;;5.80;99.90;;;;;;5093034;28;20169;-68
2024/01/06 00:57:28;;;;;;;3.90;2.07;;;5.80;99.90;;;;;;5092667;28;20228;-68
2024/01/06 00:59:54;;;;;;;3.13;2.10;;;5.80;99.90;;;;;;5092937;28;20172;-69
2024/01/06 01:02:19;;;;;;;5.17;2.37;;;5.80;99.90;;;;;;5092828;28;20193;-68
2024/01/06 01:04:45;;;;;;;3.23;2.20;;;5.80;99.90;;;;;;5092947;28;20183;-68
2024/01/06 01:07:11;;;;;;;4.23;2.80;;;5.80;99.90;;;;;;5092568;28;20165;-68
2024/01/06 01:09:37;;;;;;;3.40;2.40;;;5.80;99.90;;;;;;5092864;28;20633;-68
2024/01/06 01:12:03;;;;;;;4.77;2.30;;;5.80;99.90;;;;;;5092618;28;20417;-68
2024/01/06 01:14:28;;;;;;;4.77;3.03;;;5.80;99.90;;;;;;5092501;28;20195;-68
2024/01/06 01:16:54;;;;;;;4.30;3.20;;;5.80;99.90;;;;;;5092604;28;20587;-69
2024/01/06 01:19:19;;;;;;;5.73;2.37;;;5.80;99.90;;;;;;5093433;28;20195;-69
2024/01/06 01:21:45;;;;;;;3.00;2.50;;;5.80;99.90;;;;;;5093678;28;20637;-69
2024/01/06 01:24:10;;;;;;;6.33;3.13;;;5.80;99.90;;;;;;5092480;28;20360;-69
2024/01/06 01:26:36;;;;;;;7.73;3.20;;;5.80;99.90;;;;;;5092199;28;20217;-68
2024/01/06 01:29:01;;;;;;;4.73;2.47;;;5.80;99.90;;;;;;5057426;28;20220;-68
2024/01/06 01:31:27;;;;;;;3.47;2.40;;;5.80;99.90;;;;;;5054415;28;20176;-68
2024/01/06 01:33:52;;;;;;;7.50;2.47;;;5.80;99.90;;;;;;5061265;28;20459;-68
2024/01/06 01:36:18;;;;;;;4.63;2.37;;;5.70;99.90;;;;;;5056151;28;20173;-68
2024/01/06 01:38:44;;;;;;;6.33;2.53;;;5.70;99.90;;;;;;5055637;28;20237;-69
2024/01/06 01:41:09;;;;;;;2.37;1.97;;;5.70;99.90;;;;;;5071800;28;20578;-68
2024/01/06 01:43:35;;;;;;;5.57;2.60;;;5.60;99.90;;;;;;5071957;28;20189;-68
2024/01/06 01:46:01;;;;;;;3.60;2.47;;;5.60;99.90;;;;;;5071990;28;20180;-68
2024/01/06 01:48:27;;;;;;;3.10;2.73;;;5.60;99.90;;;;;;5070504;28;20169;-70
2024/01/06 01:50:53;;;;;;;3.67;2.30;;;5.60;99.90;;;;;;5072055;28;20502;-68
2024/01/06 01:53:20;;;;;;;5.47;2.37;;;5.60;99.90;;;;;;5071802;28;20470;-69
2024/01/06 01:55:46;;;;;;;8.30;2.77;;;5.60;99.90;;;;;;5071888;28;20411;-69
2024/01/06 01:58:13;;;;;;;7.47;3.13;;;5.60;99.90;;;;;;5071674;28;20427;-69
2024/01/06 02:00:39;;;;;;;8.27;3.20;;;5.60;99.90;;;;;;5071905;28;20783;-69
2024/01/06 02:03:05;;;;;;;5.03;2.90;;;5.50;99.90;;;;;;5071894;28;20517;-69
2024/01/06 02:05:31;;;;;;;4.90;3.00;;;5.60;99.90;;;;;;5071986;28;20172;-69
2024/01/06 02:07:57;;;;;;;6.00;2.90;;;5.50;99.90;;;;;;5071502;28;20415;-69
2024/01/06 02:10:22;;;;;;;4.50;2.63;;;5.50;99.90;;;;;;5071798;28;20173;-69
2024/01/06 02:12:48;;;;;;;5.17;3.23;;;5.50;99.90;;;;;;5071695;28;20205;-69
2024/01/06 02:15:14;;;;;;;5.23;2.33;;;5.50;99.90;;;;;;5071812;28;20168;-69
2024/01/06 02:17:40;;;;;;;3.30;2.77;;;5.50;99.90;;;;;;5071522;28;20412;-69
2024/01/06 02:20:07;;;;;;;4.10;2.93;;;5.50;99.90;;;;;;5071755;28;20160;-69
2024/01/06 02:22:35;;;;;;;2.30;2.03;;;5.50;99.90;;;;;;5071543;28;20200;-69
2024/01/06 02:25:02;;;;;;;7.40;2.93;;;5.50;99.90;;;;;;5071689;28;20414;-69
2024/01/06 02:27:27;;;;;;;3.37;2.40;;;5.50;99.90;;;;;;5071529;28;20832;-69
2024/01/06 02:29:53;;;;;;;6.37;2.63;;;5.50;99.90;;;;;;5071632;28;20419;-69
2024/01/06 02:32:18;;;;;;;3.80;1.87;;;5.50;99.90;;;;;;5071610;28;20215;-69
2024/01/06 02:34:44;;;;;;;7.03;2.47;;;5.50;99.90;;;;;;5071624;28;20201;-69
2024/01/06 02:37:09;;;;;;;4.60;3.90;;;5.50;99.90;;;;;;5071261;28;20216;-69
2024/01/06 02:39:35;;;;;;;4.83;2.67;;;5.50;99.90;;;;;;5071572;28;20201;-69
2024/01/06 02:42:00;;;;;;;4.97;2.30;;;5.50;99.90;;;;;;5071381;28;20196;-69
2024/01/06 02:44:26;;;;;;;6.73;2.97;;;5.50;99.90;;;;;;5073072;28;20554;-69
2024/01/06 02:46:52;;;;;;;3.43;2.43;;;5.50;99.90;;;;;;5074967;28;20189;-68
2024/01/06 02:49:17;;;;;;;3.20;2.70;;;5.50;99.90;;;;;;5075246;28;20180;-69
2024/01/06 02:51:43;;;;;;;5.30;2.63;;;5.40;99.90;;;;;;5075254;28;20814;-68
2024/01/06 02:54:08;;;;;;;6.93;3.00;;;5.40;99.90;;;;;;5074830;28;20215;-69
2024/01/06 02:56:34;;;;;;;5.67;3.20;;;5.40;99.90;;;;;;5074970;28;20169;-68
2024/01/06 02:58:59;;;;;;;4.73;2.90;;;5.30;99.90;;;;;;5075168;28;20169;-69
2024/01/06 03:01:25;;;;;;;7.50;3.07;;;5.30;99.90;;;;;;5074966;28;20219;-69
2024/01/06 03:03:50;;;;;;;6.77;2.50;;;5.30;99.90;;;;;;5075006;28;20193;-69
2024/01/06 03:06:16;;;;;;;8.60;3.17;;;5.30;99.90;;;;;;5074808;28;20165;-69
2024/01/06 03:08:41;;;;;;;5.07;2.37;;;5.30;99.90;;;;;;5074645;28;20638;-69
2024/01/06 03:11:08;;;;;;;4.20;2.40;;;5.30;99.90;;;;;;5074770;28;20205;-69
2024/01/06 03:13:33;;;;;;;2.40;2.20;;;5.40;99.90;;;;;;5074806;28;20557;-69
2024/01/06 03:16:04;;;;;;;6.07;3.17;;;5.30;99.90;;;;;;5074775;28;20169;-69
2024/01/06 03:18:30;;;;;;;7.63;3.27;;;5.30;99.90;;;;;;5074526;28;20256;-69
2024/01/06 03:20:55;;;;;;;6.20;2.60;;;5.30;99.90;;;;;;5074671;28;20506;-69
2024/01/06 03:23:21;;;;;;;3.60;2.70;;;5.30;99.90;;;;;;5074344;28;20218;-70
2024/01/06 03:25:46;;;;;;;3.53;2.60;;;5.30;99.90;;;;;;5074560;28;20173;-69
2024/01/06 03:28:12;;;;;;;2.60;2.40;;;5.30;99.90;;;;;;5074238;28;20172;-70
2024/01/06 03:30:37;;;;;;;3.23;2.93;;;5.30;99.90;;;;;;5074510;28;20173;-69
2024/01/06 03:33:03;;;;;;;2.90;2.47;;;5.30;99.90;;;;;;5074405;28;20203;-69
2024/01/06 03:35:28;;;;;;;5.00;2.47;;;5.40;99.90;;;;;;5074434;28;20207;-68
2024/01/06 03:37:55;;;;;;;3.40;2.60;;;5.40;99.90;;;;;;5073954;28;20770;-69
2024/01/06 03:40:20;;;;;;;4.17;2.70;;;5.50;99.90;;;;;;5074281;28;20660;-68
2024/01/06 03:42:46;;;;;;;7.23;2.70;;;5.40;99.90;;;;;;5074221;28;20439;-69
2024/01/06 03:45:11;;;;;;;3.77;2.63;;;5.50;99.90;;;;;;5074218;28;20180;-69
2024/01/06 03:47:37;;;;;;;6.60;2.87;;;5.50;99.90;;;;;;5073787;28;20196;-69
2024/01/06 03:50:02;;;;;;;3.93;2.50;;;5.50;99.90;;;;;;5074233;28;20172;-69
2024/01/06 03:52:28;;;;;;;2.30;2.07;;;5.50;99.90;;;;;;5072617;28;20197;-68
2024/01/06 03:54:53;;;;;;;11.70;3.27;;;5.50;99.90;;;;;;5073672;28;20687;-69
2024/01/06 03:57:19;;;;;;;3.63;2.60;;;5.50;99.90;;;;;;5073931;28;20256;-69
2024/01/06 03:59:44;;;;;;;9.93;2.53;;;5.40;99.90;;;;;;5073852;28;20673;-69
2024/01/06 04:02:10;;;;;;;4.27;2.87;;;5.40;99.90;;;;;;5073814;28;20177;-69
2024/01/06 04:04:35;;;;;;;4.27;2.73;;;5.40;99.90;;;;;;5073851;28;20177;-68
2024/01/06 04:07:01;;;;;;;4.03;2.50;;;5.40;99.90;;;;;;5073485;28;20177;-69
2024/01/06 04:09:27;;;;;;;3.87;2.70;;;5.40;99.90;;;;;;5073724;28;20161;-69
2024/01/06 04:11:52;;;;;;;3.13;2.47;;;5.50;99.90;;;;;;5073737;28;20176;-68
2024/01/06 04:14:18;;;;;;;5.77;2.73;;;5.50;99.90;;;;;;5073601;28;20204;-69
2024/01/06 04:16:43;;;;;;;5.47;3.20;;;5.50;99.90;;;;;;5073275;28;20546;-69
2024/01/06 04:19:11;;;;;;;3.83;2.17;;;5.50;99.90;;;;;;5073626;28;20172;-69
2024/01/06 04:21:36;;;;;;;3.33;3.03;;;5.40;99.90;;;;;;5073498;28;20656;-68
2024/01/06 04:24:02;;;;;;;4.57;3.10;;;5.40;99.90;;;;;;5073180;28;20463;-68
2024/01/06 04:26:27;;;;;;;2.40;2.20;;;5.40;99.90;;;;;;5071784;28;20181;-68
2024/01/06 04:28:53;;;;;;;8.40;2.60;;;5.40;99.90;;;;;;5073379;28;20180;-69
2024/01/06 04:31:18;;;;;;;3.63;2.37;;;5.30;99.90;;;;;;5073370;28;20169;-68
2024/01/06 04:33:43;;;;;;;3.07;2.60;;;5.30;99.90;;;;;;5073098;28;20246;-69
2024/01/06 04:36:09;;;;;;;8.83;3.00;;;5.30;99.90;;;;;;5073087;28;20243;-69
2024/01/06 04:38:35;;;;;;;4.37;3.30;;;5.30;99.90;;;;;;5072771;28;20169;-69
2024/01/06 04:41:00;;;;;;;5.97;2.83;;;5.30;99.90;;;;;;5073149;28;20167;-68
2024/01/06 04:43:26;;;;;;;4.30;2.80;;;5.30;99.90;;;;;;5072983;28;20650;-69
2024/01/06 04:45:51;;;;;;;4.33;2.67;;;5.30;99.90;;;;;;5073072;28;20180;-69
2024/01/06 04:48:17;;;;;;;3.60;2.73;;;5.20;99.90;;;;;;5072688;28;20173;-69
2024/01/06 04:50:42;;;;;;;5.13;3.00;;;5.20;99.90;;;;;;5072848;28;20204;-68
2024/01/06 04:53:08;;;;;;;3.50;2.60;;;5.10;99.90;;;;;;5072751;28;20577;-69
2024/01/06 04:55:33;;;;;;;5.23;2.90;;;5.10;99.90;;;;;;5072874;28;20172;-69
2024/01/06 04:57:59;;;;;;;3.63;2.40;;;5.00;99.90;;;;;;5072479;28;20161;-69
2024/01/06 05:00:25;;;;;;;5.20;2.87;;;5.00;99.90;;;;;;5072705;28;20675;-69
2024/01/06 05:02:51;;;;;;;5.10;2.53;;;4.90;99.90;;;;;;5072633;28;20188;-68
2024/01/06 05:05:16;;;;;;;2.67;2.47;;;5.00;99.90;;;;;;5072616;28;20927;-69
2024/01/06 05:07:42;;;;;;;4.93;2.93;;;5.00;99.90;;;;;;5071468;28;20177;-69
2024/01/06 05:10:08;;;;;;;2.60;2.23;;;5.00;99.90;;;;;;5072594;28;20179;-69
2024/01/06 05:12:33;;;;;;;6.70;2.23;;;5.00;99.90;;;;;;5072496;28;20200;-69
2024/01/06 05:14:59;;;;;;;7.50;2.70;;;5.00;99.90;;;;;;5072513;28;20916;-69
2024/01/06 05:17:24;;;;;;;6.00;1.90;;;5.00;99.90;;;;;;5072049;28;20642;-69
2024/01/06 05:19:50;;;;;;;4.50;1.90;;;5.00;99.90;;;;;;5072363;28;20180;-68
2024/01/06 05:22:15;;;;;;;4.37;2.50;;;5.00;99.90;;;;;;5070816;28;20623;-69
2024/01/06 05:24:41;;;;;;;3.90;1.60;;;5.00;99.90;;;;;;5072394;28;20256;-68
2024/01/06 05:27:06;;;;;;;2.23;1.80;;;5.00;99.90;;;;;;5070761;28;20217;-69
2024/01/06 05:29:32;;;;;;;1.87;1.73;;;5.10;99.90;;;;;;5072319;28;20545;-69
2024/01/06 05:31:57;;;;;;;5.10;1.70;;;5.20;99.90;;;;;;5072204;28;20177;-69
2024/01/06 05:34:23;;;;;;;4.10;1.90;;;5.20;99.90;;;;;;5072126;28;20242;-68
2024/01/06 05:36:48;;;;;;;6.53;2.13;;;5.20;99.90;;;;;;5071788;28;20535;-69
2024/01/06 05:39:14;;;;;;;3.20;2.00;;;5.30;99.90;;;;;;5072136;28;20169;-69
2024/01/06 05:41:40;;;;;;;2.10;2.00;;;5.30;99.90;;;;;;5072163;28;20168;-69
2024/01/06 05:44:06;;;;;;;2.57;1.63;;;5.40;99.90;;;;;;5072061;28;20204;-69
2024/01/06 05:46:31;;;;;;;6.00;2.07;;;5.40;99.90;;;;;;5070488;28;20419;-69
2024/01/06 05:48:57;;;;;;;3.30;2.07;;;5.40;99.90;;;;;;5072079;28;20177;-69
2024/01/06 05:51:23;;;;;;;2.60;1.53;;;5.30;99.90;;;;;;5071971;28;20204;-69
2024/01/06 05:53:49;;;;;;;2.60;2.13;;;5.30;99.90;;;;;;5071881;28;20207;-69
2024/01/06 05:56:25;;;;;;;2.93;2.47;;;5.30;99.90;;;;;;5072021;28;20418;-70
2024/01/06 05:58:52;;;;;;;3.57;2.40;;;5.30;99.90;;;;;;5071953;28;20258;-69
2024/01/06 06:01:18;;;;;;;6.67;2.40;;;5.20;99.90;;;;;;5072091;28;20477;-69
2024/01/06 06:03:43;;;;;;;5.03;2.57;;;5.20;99.90;;;;;;5071830;28;20443;-69
2024/01/06 06:06:09;;;;;;;2.90;1.90;;;5.30;99.90;;;;;;5071811;28;20183;-70
2024/01/06 06:08:34;;;;;;;3.60;2.00;;;5.40;99.90;;;;;;5071604;28;20191;-69
2024/01/06 06:11:10;;;;;;;2.90;2.33;;;5.40;99.90;;;;;;5071930;28;20171;-69
2024/01/06 06:13:36;;;;;;;3.07;1.90;;;5.40;99.90;;;;;;5071766;28;20254;-69
2024/01/06 06:16:02;;;;;;;3.40;2.73;;;5.40;99.90;;;;;;5071793;28;20452;-69
2024/01/06 06:18:28;;;;;;;4.97;2.03;;;5.40;99.90;;;;;;5073607;28;20904;-69
2024/01/06 06:20:53;;;;;;;3.60;2.10;;;5.50;99.90;;;;;;5076263;28;20180;-69
2024/01/06 06:23:19;;;;;;;2.70;2.03;;;5.60;99.90;;;;;;5099926;22;20760;-69
2024/01/06 06:25:44;;;;;;;1.77;1.63;;;5.60;99.90;;;;;;5067356;28;20169;-69
2024/01/06 06:28:10;;;;;;;2.17;1.80;;;5.50;99.90;;;;;;5075087;28;20172;-69
2024/01/06 06:30:35;;;;;;;2.60;1.40;;;5.60;99.90;;;;;;5075670;28;20641;-69
2024/01/06 06:33:01;;;;;;;1.80;1.60;;;5.60;99.90;;;;;;5075370;28;20201;-70
2024/01/06 06:35:26;;;;;;;2.87;1.90;;;5.50;99.90;;;;;;5075555;28;20279;-69
2024/01/06 06:37:51;;;;;;;5.17;2.37;;;5.50;99.90;;;;;;5075153;28;20169;-69
2024/01/06 06:40:17;;;;;;;2.63;2.43;;;5.40;99.90;;;;;;5075482;28;20665;-70
2024/01/06 06:42:43;;;;;;;2.30;2.10;;;5.40;99.90;;;;;;5075347;28;20226;-70
2024/01/06 06:45:11;;;;;;;3.57;2.43;;;5.50;99.90;;;;;;5075258;28;20165;-69
2024/01/06 06:47:37;;;;;;;4.37;2.23;;;5.50;99.90;;;;;;5074917;28;20184;-70
2024/01/06 06:50:02;;;;;;;2.70;2.43;;;5.50;99.90;;;;;;5075412;28;20923;-69
2024/01/06 06:52:28;;;;;;;2.77;1.83;;;5.50;99.90;;;;;;5075141;28;20614;-70
2024/01/06 06:54:54;;;;;;;3.70;2.20;;;5.50;99.90;;;;;;5075152;28;20218;-70
2024/01/06 06:57:19;;;;;;;2.63;2.13;;;5.50;99.90;;;;;;5074700;28;20168;-69
2024/01/06 06:59:45;;;;;;;10.07;5.40;;;5.50;99.90;;;;;;5075044;28;20227;-69
2024/01/06 07:02:10;;;;;;;5.97;3.30;;;5.40;99.90;;;;;;5056982;28;20192;-69
2024/01/06 07:04:36;;;;;;;2.90;2.00;;;5.40;99.90;;;;;;5074842;28;20649;-70
2024/01/06 07:07:01;;;;;;;3.13;2.00;;;5.50;99.90;;;;;;5074819;28;20597;-69
2024/01/06 07:09:27;;;;;;;5.60;2.73;;;5.60;99.90;;;;;;5074850;28;20252;-69
2024/01/06 07:11:52;;;;;;;3.60;1.93;;;5.60;99.90;;;;;;5074816;28;20607;-69
2024/01/06 07:14:18;;;;;;;5.13;2.47;;;5.60;99.90;;;;;;5074630;28;20205;-70
2024/01/06 07:16:43;;;;;;;4.80;2.57;;;5.60;99.90;;;;;;5074387;28;20247;-69
2024/01/06 07:19:09;;;;;;;3.77;2.30;;;5.60;99.90;;;;;;5074656;28;20654;-69
2024/01/06 07:21:35;;;;;;;2.23;2.03;;;5.60;99.90;;;;;;5074686;28;20711;-69
2024/01/06 07:24:01;;;;;;;4.10;2.33;;;5.60;99.90;;;;;;5074380;28;20599;-70
2024/01/06 07:26:27;;;;;;;4.37;3.13;;;5.60;99.90;;;;;;5074333;28;20177;-69
2024/01/06 07:28:52;;;;;;;5.83;3.83;;;5.60;99.90;;;;;;5074410;28;20885;-69
2024/01/06 07:31:18;;;;;;;7.63;4.47;;;5.60;99.90;;;;;;5073522;28;20516;-69
2024/01/06 07:33:43;;;;;;;13.93;9.23;;;5.60;99.90;;;;;;5074283;28;20210;-69
2024/01/06 07:36:09;;;;;;;8.10;4.20;;;5.50;99.90;;;;;;5074481;28;20168;-69
2024/01/06 07:38:34;;;;;;;5.83;4.10;;;5.40;99.90;;;;;;5074153;28;20196;-69
2024/01/06 07:41:00;;;;;;;5.70;3.27;;;5.40;99.90;;;;;;5074469;28;20159;-69
2024/01/06 07:43:25;;;;;;;3.27;2.13;;;5.40;99.90;;;;;;5056258;28;20220;-69
2024/01/06 07:45:51;;;;;;;4.17;3.13;;;5.40;99.90;;;;;;5074154;28;20183;-70
2024/01/06 07:48:17;;;;;;;4.17;3.20;;;5.40;99.90;;;;;;5073873;28;20257;-69
2024/01/06 07:50:42;;;;;;;2.47;2.27;;;5.40;99.90;;;;;;5074107;28;20169;-70
2024/01/06 07:53:08;;;;;;;3.27;2.73;;;5.40;99.90;;;;;;5073920;28;20201;-69
2024/01/06 07:55:33;;;;;;;3.73;3.13;;;5.50;99.90;;;;;;5074112;28;20169;-69
2024/01/06 07:57:59;;;;;;;2.80;2.60;;;5.50;99.90;;;;;;5073715;28;20644;-69
2024/01/06 08:00:25;;;;;;;2.13;1.97;;;5.60;99.90;;;;;;5055924;28;20180;-69
2024/01/06 08:02:50;;;;;;;4.43;2.87;;;5.60;99.90;;;;;;5055824;28;20548;-69
2024/01/06 08:05:16;;;;;;;6.70;2.53;;;5.70;99.90;;;;;;5073840;28;20426;-69
2024/01/06 08:07:42;;;;;;;3.00;2.70;;;5.70;99.90;;;;;;5073477;28;20218;-69
2024/01/06 08:10:08;;;;;;;2.83;2.50;;;5.80;99.90;;;;;;5073759;28;20177;-69
2024/01/06 08:12:34;;;;;;;2.10;2.00;;;5.80;99.90;;;;;;5073559;28;20174;-69
2024/01/06 08:15:00;;;;;;;6.47;2.57;;;5.90;99.90;;;;;;5073555;28;20427;-69
2024/01/06 08:17:25;;;;;;;9.70;3.10;;;5.90;99.90;;;;;;5073276;28;20238;-70
2024/01/06 08:19:51;;;;;;;3.13;2.30;;;5.80;99.90;;;;;;5073618;28;20165;-69
2024/01/06 08:22:16;;;;;;;4.90;2.83;;;5.80;99.90;;;;;;5073522;28;20537;-69
2024/01/06 08:24:42;;;;;;;3.20;2.57;;;5.90;99.90;;;;;;5073331;28;20205;-69
2024/01/06 08:27:07;;;;;;;3.03;2.80;;;5.90;99.90;;;;;;5073185;28;20523;-69
2024/01/06 08:29:34;;;;;;;4.00;2.70;;;5.90;99.90;;;;;;5055458;28;20172;-69
2024/01/06 08:31:59;;;;;;;2.63;2.43;;;6.00;99.90;;;;;;5073201;28;20161;-69
2024/01/06 08:34:25;;;;;;;2.23;2.13;;;6.10;99.90;;;;;;5073068;28;20814;-69
2024/01/06 08:36:50;;;;;;;5.10;2.57;;;6.10;99.90;;;;;;5072957;28;20196;-70
2024/01/06 08:39:16;;;;;;;2.40;2.20;;;6.10;99.90;;;;;;5073144;28;20169;-69
2024/01/06 08:41:42;;;;;;;5.40;2.50;;;6.20;99.90;;;;;;5073060;28;20172;-70
2024/01/06 08:44:07;;;;;;;3.30;3.00;;;6.10;99.90;;;;;;5072977;28;20734;-69
2024/01/06 08:46:33;;;;;;;2.73;2.53;;;6.20;99.90;;;;;;5072805;28;20203;-70
2024/01/06 08:49:00;;;;;;;6.50;2.77;;;6.30;99.90;;;;;;5073171;28;20264;-69
2024/01/06 08:51:26;;;;;;;2.93;2.63;;;6.40;99.90;;;;;;5072906;28;20173;-69
2024/01/06 08:53:52;;;;;;;6.03;3.33;;;6.40;99.90;;;;;;5072706;28;20546;-70
2024/01/06 08:56:17;;;;;;;4.33;2.50;;;6.50;99.90;;;;;;5072647;28;20502;-69
2024/01/06 08:58:43;;;;;;;2.77;2.37;;;6.50;99.90;;;;;;5072596;28;20165;-70
2024/01/06 09:01:09;;;;;;;3.20;2.90;;;6.50;99.90;;;;;;5072896;28;20524;-70
2024/01/06 09:03:34;;;;;;;2.50;2.30;;;6.60;99.90;;;;;;5072569;28;20715;-69
2024/01/06 09:06:00;;;;;;;4.13;3.70;;;6.50;99.90;;;;;;5072611;28;20188;-70
2024/01/06 09:08:26;;;;;;;2.30;1.97;;;6.50;99.90;;;;;;5072270;28;20192;-70
2024/01/06 09:10:51;;;;;;;3.23;2.93;;;6.50;99.90;;;;;;5072558;28;20506;-70
2024/01/06 09:13:17;;;;;;;2.67;2.20;;;6.50;99.90;;;;;;5072261;28;20561;-70
2024/01/06 09:15:43;;;;;;;3.07;1.90;;;6.50;99.90;;;;;;5072366;28;20165;-70
2024/01/06 09:18:09;;;;;;;3.63;2.20;;;6.40;99.90;;;;;;5072292;28;20422;-69
2024/01/06 09:20:35;;;;;;;7.20;2.50;;;6.40;99.90;;;;;;5072353;28;20172;-70
2024/01/06 09:23:00;;;;;;;2.90;2.10;;;6.50;99.90;;;;;;5072170;28;20808;-70
2024/01/06 09:25:26;;;;;;;2.20;2.00;;;6.60;99.90;;;;;;5072439;28;20247;-69
2024/01/06 09:27:52;;;;;;;5.93;2.00;;;6.60;99.90;;;;;;5071972;28;20197;-70
2024/01/06 09:30:18;;;;;;;2.70;2.50;;;6.70;99.90;;;;;;5072170;28;20219;-69
2024/01/06 09:32:44;;;;;;;2.90;2.20;;;6.70;99.90;;;;;;5072079;28;20442;-69
2024/01/06 09:35:09;;;;;;;7.20;5.00;;;6.90;99.90;;;;;;5072217;28;20169;-70
2024/01/06 09:37:35;;;;;;;3.80;3.40;;;7.00;99.90;;;;;;5071823;28;20169;-69
2024/01/06 09:40:00;;;;;;;2.00;1.90;;;6.90;99.90;;;;;;5072139;28;20165;-69
2024/01/06 09:42:26;;;;;;;3.30;3.10;;;6.90;99.90;;;;;;5072075;28;20192;-70
2024/01/06 09:44:52;;;;;;;3.23;1.97;;;6.60;99.90;;;;;;5072035;28;20181;-69
2024/01/06 09:47:18;;;;;;;3.80;2.40;;;6.60;99.90;;;;;;5071719;28;20165;-70
2024/01/06 09:49:49;;;;;;;5.00;4.30;;;6.50;99.90;;;;;;5072048;28;20903;-69
2024/01/06 09:52:18;;;;;;;3.07;2.60;;;6.70;99.90;;;;;;5071732;28;20447;-70
2024/01/06 09:54:54;;;;;;;2.40;2.20;;;6.80;99.90;;;;;;5071746;28;20501;-69
2024/01/06 09:57:20;;;;;;;2.50;2.30;;;7.10;99.90;;;;;;5071678;28;20429;-70
2024/01/06 09:59:46;;;;;;;2.17;1.83;;;7.30;99.90;;;;;;5071898;28;20793;-69
2024/01/06 10:02:16;;;;;;;2.30;2.10;;;7.20;99.90;;;;;;5051479;28;20492;-69
2024/01/06 10:04:43;;;;;;;2.30;2.10;;;7.40;99.90;;;;;;5034707;28;20437;-69
2024/01/06 10:07:12;;;;;;;1.73;1.63;;;7.20;99.90;;;;;;5031658;28;20428;-70
2024/01/06 10:09:38;;;;;;;2.17;1.97;;;7.20;99.90;;;;;;5031795;28;20427;-69
2024/01/06 10:12:03;;;;;;;2.67;2.47;;;7.10;99.90;;;;;;5034463;28;20428;-70
2024/01/06 10:14:29;;;;;;;2.10;1.80;;;7.20;99.90;;;;;;5038120;28;20252;-69
2024/01/06 10:16:54;;;;;;;2.80;2.53;;;7.30;99.90;;;;;;5040745;28;20187;-70
2024/01/06 10:19:20;;;;;;;1.97;1.80;;;7.20;99.90;;;;;;5051062;28;20188;-69
2024/01/06 10:21:46;;;;;;;1.70;1.57;;;7.30;99.90;;;;;;5051760;28;20200;-69
2024/01/06 10:24:12;;;;;;;1.57;1.47;;;7.40;99.90;;;;;;5051506;28;20455;-70
2024/01/06 10:26:38;;;;;;;2.10;1.80;;;7.40;99.90;;;;;;5051102;28;20594;-69
2024/01/06 10:29:04;;;;;;;4.20;3.77;;;7.30;99.90;;;;;;5032235;28;20170;-69
2024/01/06 10:31:30;;;;;;;2.10;1.70;;;7.30;99.90;;;;;;5031628;28;20435;-69
2024/01/06 10:33:56;;;;;;;1.47;1.27;;;7.30;99.90;;;;;;5031499;28;20226;-69
2024/01/06 10:36:26;;;;;;;2.70;1.60;;;7.20;99.90;;;;;;5031479;28;20449;-69
2024/01/06 10:38:52;;;;;;;2.60;2.20;;;7.10;99.90;;;;;;5031396;28;20937;-69
2024/01/06 10:41:20;;;;;;;3.03;2.20;;;7.10;99.90;;;;;;5031585;28;20915;-70
2024/01/06 10:43:47;;;;;;;2.13;2.00;;;7.00;99.90;;;;;;5031291;28;20440;-69
2024/01/06 10:46:15;;;;;;;1.83;1.73;;;7.00;99.90;;;;;;5031001;28;20420;-69
2024/01/06 10:48:43;;;;;;;1.83;1.73;;;7.10;99.90;;;;;;5030881;28;20881;-69
2024/01/06 10:51:13;;;;;;;2.27;2.07;;;7.10;99.90;;;;;;5034169;28;20451;-69
2024/01/06 10:53:41;;;;;;;2.70;1.80;;;7.10;99.90;;;;;;5040299;28;20460;-69
2024/01/06 10:56:07;;;;;;;1.57;1.17;;;7.10;99.90;;;;;;5040603;28;20424;-71
2024/01/06 10:58:37;;;;;;;1.47;1.37;;;7.00;99.90;;;;;;5014894;28;20432;-71
2024/01/06 11:01:03;;;;;;;1.50;1.40;;;7.00;99.90;;;;;;5031408;28;20467;-70
2024/01/06 11:03:29;;;;;;;3.20;1.30;;;7.00;99.90;;;;;;5031235;28;20440;-70
2024/01/06 11:05:57;;;;;;;1.77;1.67;;;7.00;99.90;;;;;;5033484;28;20421;-70
2024/01/06 11:08:25;;;;;;;1.40;1.30;;;7.00;99.90;;;;;;5034644;28;20918;-71
2024/01/06 11:10:51;;;;;;;1.43;1.33;;;7.00;99.90;;;;;;5034879;28;20417;-70
2024/01/06 11:13:22;;;;;;;1.80;1.67;;;7.00;99.90;;;;;;5034638;28;20467;-70
2024/01/06 11:15:50;;;;;;;1.37;1.27;;;7.00;99.90;;;;;;5034793;28;20412;-70
2024/01/06 11:18:35;;;;;;;1.50;1.40;;;7.10;99.90;;;;;;5034419;28;20413;-70
2024/01/06 11:21:25;;;;;;;1.77;1.67;;;7.10;99.90;;;;;;5034696;28;20832;-71
2024/01/06 11:24:15;;;;;;;1.60;1.50;;;7.20;99.90;;;;;;5034490;28;20529;-70
2024/01/06 11:26:45;;;;;;;1.30;1.20;;;7.30;99.90;;;;;;5034151;28;20973;-71
2024/01/06 11:29:11;;;;;;;1.27;1.17;;;7.30;99.90;;;;;;5034562;28;20423;-70
2024/01/06 11:31:37;;;;;;;2.20;2.00;;;7.50;99.90;;;;;;5034441;28;20494;-70
2024/01/06 11:34:14;;;;;;;1.40;1.30;;;7.50;99.90;;;;;;5034317;28;20594;-70
2024/01/06 11:36:40;;;;;;;1.20;1.10;;;7.60;99.90;;;;;;5034092;28;20964;-70
2024/01/06 11:39:06;;;;;;;1.10;1.10;;;7.60;99.90;;;;;;5034209;28;20409;-71
2024/01/06 11:41:51;;;;;;;1.20;1.13;;;7.70;99.90;;;;;;5034173;28;20177;-70
2024/01/06 11:44:22;;;;;;;1.40;1.30;;;7.70;99.90;;;;;;5034240;28;20182;-70
2024/01/06 11:46:51;;;;;;;2.73;2.13;;;7.70;99.90;;;;;;5033940;28;20799;-70
2024/01/06 11:49:20;;;;;;;2.20;1.23;;;7.70;99.90;;;;;;5034120;28;20421;-70
2024/01/06 11:51:46;;;;;;;1.87;1.77;;;7.80;99.90;;;;;;5034042;28;20433;-70
2024/01/06 11:54:12;;;;;;;1.80;1.70;;;7.70;99.90;;;;;;5033984;28;20467;-71
2024/01/06 11:56:38;;;;;;;1.50;1.40;;;7.60;99.90;;;;;;5033843;28;20166;-71
2024/01/06 11:59:03;;;;;;;1.70;1.10;;;7.70;99.90;;;;;;5034211;28;20420;-70
2024/01/06 12:01:39;;;;;;;1.07;1.07;;;7.60;99.90;;;;;;5033990;28;20174;-70
2024/01/06 12:04:05;;;;;;;1.27;1.20;;;7.40;99.90;;;;;;5033863;28;20202;-70
2024/01/06 12:06:32;;;;;;;1.50;1.40;;;7.30;99.90;;;;;;5033526;28;20429;-70
2024/01/06 12:09:05;;;;;;;1.40;1.30;;;7.40;99.90;;;;;;5033738;28;20474;-70
2024/01/06 12:11:31;;;;;;;1.53;1.43;;;7.40;99.90;;;;;;5033800;28;20431;-70
2024/01/06 12:13:57;;;;;;;1.50;1.40;;;7.50;99.90;;;;;;5033512;28;20472;-70
2024/01/06 12:16:26;;;;;;;1.80;1.70;;;7.40;99.90;;;;;;5033111;28;20166;-70
2024/01/06 12:18:56;;;;;;;1.70;1.60;;;7.40;99.90;;;;;;5033525;28;20166;-70
2024/01/06 12:21:23;;;;;;;1.83;1.73;;;7.30;99.90;;;;;;5033678;28;20531;-70
2024/01/06 12:23:48;;;;;;;2.90;1.80;;;7.40;99.90;;;;;;5033021;28;20833;-71
2024/01/06 12:26:14;;;;;;;1.60;1.50;;;7.40;99.90;;;;;;5039883;28;20437;-67
2024/01/06 12:28:39;;;;;;;2.60;1.93;;;7.50;99.90;;;;;;5047570;28;20190;-66
2024/01/06 12:31:09;;;;;;;2.10;1.93;;;7.60;99.90;;;;;;5046818;28;20177;-67
2024/01/06 12:33:37;;;;;;;1.90;1.70;;;7.70;99.90;;;;;;5052983;28;20722;-67
2024/01/06 12:36:03;;;;;;;9.23;4.60;;;7.50;99.90;;;;;;5053200;28;20950;-67
2024/01/06 12:38:29;;;;;;;11.17;8.70;;;7.40;99.90;;;;;;5052907;28;20424;-67
2024/01/06 12:40:56;;;;;;;3.67;3.37;;;7.40;99.90;;;;;;5053085;28;20408;-70
2024/01/06 12:43:21;;;;;;;4.67;3.37;;;7.30;99.90;;;;;;5053134;28;20443;-72
2024/01/06 12:45:47;;;;;;;3.77;2.80;;;7.40;99.90;;;;;;5052990;28;20426;-72
2024/01/06 12:48:12;;;;;;;2.23;2.07;;;7.40;99.90;;;;;;5052880;28;20169;-72
2024/01/06 12:50:38;;;;;;;2.13;2.00;;;7.30;99.90;;;;;;5050502;28;20535;-72
2024/01/06 12:53:04;;;;;;;2.00;1.80;;;7.30;99.90;;;;;;5053036;28;20259;-72